Time;durP1;ratioP1;P1;durP2;ratioP2;P2;SDS_P1;SDS_P2;PMS_P1;PMS_P2;Temp;Humidity;BMP_temperature;BMP_pressure;BME280_temperature;BME280_humidity;BME280_pressure;Samples;Min_cycle;Max_cycle;Signal;HPM_P1;HPM_P2
2023/10/31 00:02:07;;;;;;;0.70;0.70;;;;;;;;;;5020507;28;20717;-75
2023/10/31 00:04:33;;;;;;;0.80;0.80;;;;;;;;;;5022379;28;20049;-76
2023/10/31 00:06:58;;;;;;;0.82;0.82;;;;;;;;;;5022515;28;20486;-75
2023/10/31 00:09:24;;;;;;;0.80;0.80;;;;;;;;;;5021909;28;20029;-76
2023/10/31 00:11:49;;;;;;;0.75;0.50;;;;;;;;;;5003696;28;20021;-76
2023/10/31 00:14:14;;;;;;;0.50;0.50;;;;;;;;;;5024477;28;20106;-76
2023/10/31 00:16:39;;;;;;;0.40;0.40;;;;;;;;;;5023701;28;20037;-76
2023/10/31 00:19:05;;;;;;;0.40;0.40;;;;;;;;;;5023399;28;20038;-75
2023/10/31 00:21:30;;;;;;;0.40;0.40;;;;;;;;;;5024576;28;20041;-75
2023/10/31 00:23:55;;;;;;;0.32;0.32;;;;;;;;;;5004558;28;20482;-75
2023/10/31 00:26:21;;;;;;;0.40;0.40;;;;;;;;;;5005153;28;20033;-75
2023/10/31 00:28:46;;;;;;;0.30;0.30;;;;;;;;;;5004626;28;20074;-76
2023/10/31 00:31:11;;;;;;;0.25;0.25;;;;;;;;;;5017831;28;20029;-76
2023/10/31 00:33:37;;;;;;;0.50;0.50;;;;;;;;;;5023663;28;20037;-75
2023/10/31 00:36:03;;;;;;;0.43;0.32;;;;;;;;;;5019494;28;20108;-75
2023/10/31 00:38:28;;;;;;;0.40;0.40;;;;;;;;;;5022504;28;20029;-75
2023/10/31 00:40:54;;;;;;;0.28;0.28;;;;;;;;;;5023502;28;20525;-75
2023/10/31 00:43:19;;;;;;;0.40;0.40;;;;;;;;;;5019031;28;20398;-75
2023/10/31 00:45:44;;;;;;;0.43;0.43;;;;;;;;;;5019308;28;20037;-75
2023/10/31 00:48:10;;;;;;;0.45;0.45;;;;;;;;;;5022484;28;20037;-75
2023/10/31 00:50:35;;;;;;;0.50;0.50;;;;;;;;;;5022709;28;20050;-75
2023/10/31 00:53:00;;;;;;;0.40;0.38;;;;;;;;;;5018424;28;20592;-75
2023/10/31 00:55:25;;;;;;;1.20;0.45;;;;;;;;;;5024032;28;20090;-75
2023/10/31 00:57:51;;;;;;;0.38;0.30;;;;;;;;;;5016485;28;20397;-75
2023/10/31 01:00:16;;;;;;;0.30;0.30;;;;;;;;;;5022223;28;20033;-75
2023/10/31 01:02:42;;;;;;;0.30;0.30;;;;;;;;;;5022139;28;20037;-75
2023/10/31 01:05:07;;;;;;;0.20;0.20;;;;;;;;;;5023117;28;20049;-74
2023/10/31 01:07:34;;;;;;;0.20;0.20;;;;;;;;;;5019332;28;21383;-75
2023/10/31 01:09:59;;;;;;;1.45;0.30;;;;;;;;;;5018730;28;20576;-75
2023/10/31 01:12:27;;;;;;;2.65;0.20;;;;;;;;;;5017962;28;20314;-75
2023/10/31 01:14:53;;;;;;;0.35;0.35;;;;;;;;;;5021486;28;20309;-74
2023/10/31 01:17:18;;;;;;;0.22;0.22;;;;;;;;;;5020435;28;20037;-75
2023/10/31 01:19:43;;;;;;;0.20;0.20;;;;;;;;;;5015032;28;20076;-75
2023/10/31 01:22:09;;;;;;;0.20;0.20;;;;;;;;;;5003951;28;20448;-75
2023/10/31 01:24:34;;;;;;;0.25;0.25;;;;;;;;;;5005286;28;20039;-75
2023/10/31 01:27:00;;;;;;;0.75;0.30;;;;;;;;;;4985293;28;20401;-75
2023/10/31 01:29:25;;;;;;;0.20;0.20;;;;;;;;;;5006437;28;20041;-75
2023/10/31 01:31:50;;;;;;;0.20;0.20;;;;;;;;;;5018543;28;20544;-75
2023/10/31 01:34:16;;;;;;;0.30;0.30;;;;;;;;;;5022611;28;20417;-76
2023/10/31 01:36:41;;;;;;;0.20;0.20;;;;;;;;;;5021966;28;20045;-75
2023/10/31 01:39:07;;;;;;;0.30;0.30;;;;;;;;;;5004085;28;20033;-75
2023/10/31 01:41:33;;;;;;;0.20;0.20;;;;;;;;;;5016536;28;20033;-76
2023/10/31 01:43:58;;;;;;;0.20;0.20;;;;;;;;;;5016520;28;20486;-76
2023/10/31 01:46:23;;;;;;;0.28;0.28;;;;;;;;;;5002602;28;20052;-75
2023/10/31 01:48:48;;;;;;;0.20;0.20;;;;;;;;;;5004442;28;20686;-75
2023/10/31 01:51:14;;;;;;;0.30;0.20;;;;;;;;;;5022121;28;20025;-75
2023/10/31 01:53:39;;;;;;;0.43;0.30;;;;;;;;;;5020989;28;20041;-75
2023/10/31 01:56:06;;;;;;;0.20;0.20;;;;;;;;;;5021408;28;20083;-75
2023/10/31 01:58:37;;;;;;;1.42;0.30;;;;;;;;;;4998628;28;20187;-75
2023/10/31 02:01:04;;;;;;;0.80;0.28;;;;;;;;;;5019282;28;20022;-75
2023/10/31 02:03:29;;;;;;;0.28;0.28;;;;;;;;;;5019297;28;20374;-75
2023/10/31 02:05:55;;;;;;;0.43;0.30;;;;;;;;;;5021760;28;20064;-75
2023/10/31 02:08:21;;;;;;;0.25;0.25;;;;;;;;;;5021376;28;20459;-75
2023/10/31 02:10:46;;;;;;;0.63;0.38;;;;;;;;;;5022110;28;20090;-75
2023/10/31 02:13:13;;;;;;;0.63;0.32;;;;;;;;;;5016057;28;20653;-75
2023/10/31 02:15:39;;;;;;;0.35;0.32;;;;;;;;;;5018096;28;20289;-75
2023/10/31 02:18:04;;;;;;;0.40;0.40;;;;;;;;;;5000292;28;20029;-76
2023/10/31 02:20:29;;;;;;;0.63;0.30;;;;;;;;;;5002284;28;20037;-75
2023/10/31 02:22:55;;;;;;;0.55;0.22;;;;;;;;;;5017384;28;20065;-76
2023/10/31 02:25:20;;;;;;;6.00;0.38;;;;;;;;;;5022576;28;20193;-75
2023/10/31 02:27:46;;;;;;;0.60;0.30;;;;;;;;;;5016050;28;20034;-75
2023/10/31 02:30:12;;;;;;;0.20;0.20;;;;;;;;;;5020421;28;20429;-75
2023/10/31 02:32:37;;;;;;;0.25;0.25;;;;;;;;;;5018501;28;20025;-75
2023/10/31 02:35:03;;;;;;;0.30;0.30;;;;;;;;;;5001909;28;20042;-75
2023/10/31 02:37:28;;;;;;;0.20;0.20;;;;;;;;;;5019736;28;20102;-77
2023/10/31 02:39:57;;;;;;;1.85;0.40;;;;;;;;;;5000076;28;20060;-76
2023/10/31 02:42:22;;;;;;;0.20;0.20;;;;;;;;;;5017849;28;20524;-75
2023/10/31 02:44:47;;;;;;;0.30;0.30;;;;;;;;;;5021977;28;20474;-75
2023/10/31 02:47:12;;;;;;;0.40;0.40;;;;;;;;;;4997625;28;20128;-75
2023/10/31 02:49:38;;;;;;;0.30;0.30;;;;;;;;;;5022384;28;20582;-75
2023/10/31 02:52:03;;;;;;;0.35;0.30;;;;;;;;;;5022002;28;20037;-75
2023/10/31 02:54:29;;;;;;;0.20;0.20;;;;;;;;;;5016472;28;20469;-75
2023/10/31 02:56:54;;;;;;;0.20;0.20;;;;;;;;;;5015079;28;20065;-75
2023/10/31 02:59:19;;;;;;;0.30;0.30;;;;;;;;;;5002722;28;20080;-75
2023/10/31 03:01:45;;;;;;;0.25;0.25;;;;;;;;;;5000990;28;20045;-75
2023/10/31 03:04:10;;;;;;;0.20;0.20;;;;;;;;;;5020044;28;20088;-75
2023/10/31 03:06:36;;;;;;;0.85;0.38;;;;;;;;;;5022731;28;20042;-75
2023/10/31 03:09:01;;;;;;;0.32;0.32;;;;;;;;;;5000880;28;20032;-75
2023/10/31 03:11:27;;;;;;;1.95;0.50;;;;;;;;;;5001482;28;20076;-76
2023/10/31 03:13:53;;;;;;;0.30;0.30;;;;;;;;;;5004105;28;20093;-76
2023/10/31 03:16:19;;;;;;;0.57;0.43;;;;;;;;;;4980890;28;20100;-76
2023/10/31 03:18:46;;;;;;;0.55;0.40;;;;;;;;;;5001516;28;20546;-76
2023/10/31 03:21:11;;;;;;;0.50;0.50;;;;;;;;;;5014411;28;20379;-76
2023/10/31 03:23:36;;;;;;;0.50;0.50;;;;;;;;;;5019678;28;20029;-76
2023/10/31 03:26:02;;;;;;;0.40;0.40;;;;;;;;;;4998113;28;20038;-75
2023/10/31 03:28:27;;;;;;;1.55;0.57;;;;;;;;;;5016904;28;20525;-76
2023/10/31 03:30:53;;;;;;;0.38;0.38;;;;;;;;;;4998493;28;20045;-76
2023/10/31 03:33:18;;;;;;;0.65;0.40;;;;;;;;;;5019303;28;20095;-76
2023/10/31 03:35:44;;;;;;;0.50;0.50;;;;;;;;;;5021069;28;20029;-76
2023/10/31 03:38:09;;;;;;;2.22;0.38;;;;;;;;;;5018845;28;20033;-76
2023/10/31 03:40:34;;;;;;;0.32;0.32;;;;;;;;;;5019599;28;20042;-76
2023/10/31 03:43:00;;;;;;;0.30;0.30;;;;;;;;;;5015333;28;20044;-76
2023/10/31 03:45:25;;;;;;;0.40;0.40;;;;;;;;;;5001091;28;20033;-76
2023/10/31 03:47:50;;;;;;;0.90;0.50;;;;;;;;;;5018697;28;20614;-76
2023/10/31 03:50:16;;;;;;;0.63;0.52;;;;;;;;;;5009832;28;20121;-76
2023/10/31 03:52:41;;;;;;;1.30;0.70;;;;;;;;;;4986999;28;20038;-74
2023/10/31 03:55:07;;;;;;;0.80;0.60;;;;;;;;;;4998873;28;20046;-75
2023/10/31 03:57:33;;;;;;;0.50;0.50;;;;;;;;;;4997786;28;20042;-76
2023/10/31 03:59:58;;;;;;;0.60;0.60;;;;;;;;;;4997675;28;20018;-75
2023/10/31 04:02:23;;;;;;;1.38;0.60;;;;;;;;;;5004867;28;20407;-78
2023/10/31 04:04:48;;;;;;;0.40;0.40;;;;;;;;;;4991432;28;20042;-77
2023/10/31 04:07:14;;;;;;;0.40;0.40;;;;;;;;;;5004942;28;20344;-75
2023/10/31 04:09:39;;;;;;;0.73;0.70;;;;;;;;;;5011445;28;20397;-75
2023/10/31 04:12:05;;;;;;;0.75;0.52;;;;;;;;;;5020182;28;20021;-75
2023/10/31 04:14:30;;;;;;;1.25;0.60;;;;;;;;;;5022656;28;20123;-75
2023/10/31 04:16:55;;;;;;;0.93;0.70;;;;;;;;;;5004631;28;20626;-76
2023/10/31 04:19:21;;;;;;;0.50;0.40;;;;;;;;;;5003937;28;20076;-75
2023/10/31 04:24:14;;;;;;;2.83;0.47;;;;;;;;;;4998906;28;20054;-80
2023/10/31 04:26:41;;;;;;;0.60;0.40;;;;;;;;;;5001349;28;20030;-80
2023/10/31 04:29:06;;;;;;;0.63;0.52;;;;;;;;;;4999243;28;20023;-80
2023/10/31 04:31:31;;;;;;;0.60;0.60;;;;;;;;;;4994334;28;20035;-80
2023/10/31 04:33:57;;;;;;;1.05;0.45;;;;;;;;;;4980949;28;20039;-80
2023/10/31 04:36:22;;;;;;;0.65;0.60;;;;;;;;;;4980761;28;20042;-81
2023/10/31 04:38:47;;;;;;;0.40;0.40;;;;;;;;;;4963571;28;20085;-80
2023/10/31 04:41:13;;;;;;;0.50;0.50;;;;;;;;;;4962644;28;20034;-81
2023/10/31 04:43:41;;;;;;;0.40;0.40;;;;;;;;;;4979960;28;20043;-80
2023/10/31 04:46:07;;;;;;;0.40;0.40;;;;;;;;;;5005366;28;20407;-80
2023/10/31 04:48:32;;;;;;;0.30;0.30;;;;;;;;;;4999978;28;20046;-78
2023/10/31 04:50:58;;;;;;;1.20;0.43;;;;;;;;;;4990343;28;20077;-78
2023/10/31 04:53:23;;;;;;;0.93;0.43;;;;;;;;;;4997900;28;20126;-79
2023/10/31 04:55:49;;;;;;;0.85;0.50;;;;;;;;;;5001789;28;20123;-79
2023/10/31 04:58:14;;;;;;;1.45;0.60;;;;;;;;;;5000505;28;20542;-80
2023/10/31 05:00:40;;;;;;;0.50;0.50;;;;;;;;;;5005578;28;20036;-82
2023/10/31 05:03:05;;;;;;;2.35;0.60;;;;;;;;;;5008878;28;20108;-81
2023/10/31 05:05:30;;;;;;;0.45;0.45;;;;;;;;;;5012195;28;20029;-82
2023/10/31 05:07:56;;;;;;;0.30;0.30;;;;;;;;;;5010767;28;20093;-80
2023/10/31 05:10:21;;;;;;;0.77;0.63;;;;;;;;;;5009094;28;20034;-81
2023/10/31 05:12:46;;;;;;;0.80;0.50;;;;;;;;;;5008037;28;20034;-81
2023/10/31 05:15:12;;;;;;;0.38;0.38;;;;;;;;;;5008911;28;20212;-81
2023/10/31 05:17:37;;;;;;;0.55;0.40;;;;;;;;;;5012078;28;20014;-82
2023/10/31 05:20:03;;;;;;;1.27;0.50;;;;;;;;;;5000191;28;20081;-82
2023/10/31 05:22:28;;;;;;;0.65;0.52;;;;;;;;;;4986140;28;20050;-81
2023/10/31 05:24:54;;;;;;;1.33;0.47;;;;;;;;;;4989379;28;20037;-81
2023/10/31 05:27:19;;;;;;;2.00;0.60;;;;;;;;;;4986849;28;20022;-81
2023/10/31 05:29:44;;;;;;;0.77;0.50;;;;;;;;;;4990426;28;20026;-81
2023/10/31 05:32:10;;;;;;;0.50;0.50;;;;;;;;;;4986377;28;20109;-81
2023/10/31 05:34:35;;;;;;;3.53;0.85;;;;;;;;;;4989265;28;20080;-81
2023/10/31 05:37:00;;;;;;;0.60;0.60;;;;;;;;;;5003692;28;20041;-81
2023/10/31 05:39:26;;;;;;;0.52;0.52;;;;;;;;;;5004216;28;20045;-80
2023/10/31 05:41:52;;;;;;;1.25;0.50;;;;;;;;;;5001143;28;20037;-81
2023/10/31 05:44:17;;;;;;;1.05;0.50;;;;;;;;;;5003223;28;20046;-81
2023/10/31 05:46:42;;;;;;;0.50;0.50;;;;;;;;;;5006674;28;20038;-80
2023/10/31 05:49:08;;;;;;;3.40;0.85;;;;;;;;;;5004874;28;20502;-81
2023/10/31 05:51:35;;;;;;;0.47;0.47;;;;;;;;;;5002605;28;20047;-81
2023/10/31 05:54:00;;;;;;;1.58;0.57;;;;;;;;;;5007688;28;20410;-80
2023/10/31 05:56:25;;;;;;;0.52;0.52;;;;;;;;;;4986445;28;20101;-82
2023/10/31 05:58:51;;;;;;;1.48;0.60;;;;;;;;;;5009829;28;20058;-81
2023/10/31 06:01:16;;;;;;;0.52;0.52;;;;;;;;;;4988483;28;20045;-79
2023/10/31 06:03:45;;;;;;;0.85;0.60;;;;;;;;;;4982701;28;20035;-79
2023/10/31 06:06:11;;;;;;;0.50;0.50;;;;;;;;;;4985348;28;20036;-79
2023/10/31 06:08:38;;;;;;;0.63;0.63;;;;;;;;;;4986479;28;20034;-81
2023/10/31 06:11:03;;;;;;;0.63;0.63;;;;;;;;;;5002313;28;20095;-81
2023/10/31 06:13:31;;;;;;;1.30;0.70;;;;;;;;;;5008060;28;20499;-80
2023/10/31 06:15:57;;;;;;;4.90;0.60;;;;;;;;;;5010191;28;20026;-81
2023/10/31 06:18:23;;;;;;;0.43;0.43;;;;;;;;;;5006092;28;20053;-81
2023/10/31 06:20:48;;;;;;;0.70;0.70;;;;;;;;;;5008994;28;20484;-81
2023/10/31 06:23:13;;;;;;;3.25;0.75;;;;;;;;;;5006967;28;20518;-81
2023/10/31 06:25:39;;;;;;;1.15;0.60;;;;;;;;;;5003483;28;20117;-81
2023/10/31 06:28:04;;;;;;;0.75;0.63;;;;;;;;;;5011449;28;20038;-81
2023/10/31 06:30:29;;;;;;;0.60;0.60;;;;;;;;;;5002337;28;20058;-80
2023/10/31 06:32:55;;;;;;;1.10;0.80;;;;;;;;;;4991919;28;20022;-81
2023/10/31 06:35:20;;;;;;;5.47;0.82;;;;;;;;;;5001930;28;20037;-81
2023/10/31 06:37:45;;;;;;;0.57;0.57;;;;;;;;;;5004537;28;20050;-80
2023/10/31 06:40:11;;;;;;;2.38;0.70;;;;;;;;;;5001292;28;20061;-81
2023/10/31 06:42:36;;;;;;;2.20;0.52;;;;;;;;;;5004601;28;20109;-82
2023/10/31 06:45:03;;;;;;;0.60;0.60;;;;;;;;;;5003179;28;20026;-81
2023/10/31 06:47:30;;;;;;;0.98;0.65;;;;;;;;;;4991053;28;20038;-79
2023/10/31 06:49:55;;;;;;;1.30;0.60;;;;;;;;;;4978624;28;20157;-82
2023/10/31 06:52:20;;;;;;;1.15;0.77;;;;;;;;;;4937845;28;20106;-80
2023/10/31 06:54:46;;;;;;;1.38;0.70;;;;;;;;;;4969741;28;20050;-80
2023/10/31 06:57:11;;;;;;;1.95;0.80;;;;;;;;;;5001031;28;20052;-80
2023/10/31 06:59:36;;;;;;;0.70;0.50;;;;;;;;;;5003297;28;20034;-78
2023/10/31 07:02:02;;;;;;;0.60;0.60;;;;;;;;;;5001486;28;20035;-79
2023/10/31 07:04:27;;;;;;;0.82;0.82;;;;;;;;;;5007973;28;20030;-80
2023/10/31 07:06:56;;;;;;;0.82;0.63;;;;;;;;;;5001666;28;20394;-81
2023/10/31 07:09:25;;;;;;;0.70;0.70;;;;;;;;;;4985146;28;20015;-80
2023/10/31 07:11:51;;;;;;;0.60;0.60;;;;;;;;;;5002863;28;20202;-80
2023/10/31 07:14:16;;;;;;;1.10;0.60;;;;;;;;;;5011173;28;20729;-79
2023/10/31 07:16:43;;;;;;;0.50;0.50;;;;;;;;;;5005555;28;20121;-80
2023/10/31 07:19:09;;;;;;;2.65;1.77;;;;;;;;;;5005179;28;20162;-80
2023/10/31 07:21:34;;;;;;;1.30;0.60;;;;;;;;;;4988376;28;20121;-80
2023/10/31 07:23:59;;;;;;;0.75;0.50;;;;;;;;;;5010379;28;20037;-80
2023/10/31 07:26:27;;;;;;;0.82;0.70;;;;;;;;;;5002239;28;20057;-81
2023/10/31 07:28:52;;;;;;;0.60;0.60;;;;;;;;;;5005804;28;20080;-80
2023/10/31 07:31:18;;;;;;;4.28;0.80;;;;;;;;;;5006607;28;20050;-81
2023/10/31 07:33:45;;;;;;;0.60;0.60;;;;;;;;;;5006264;28;20523;-81
2023/10/31 07:36:10;;;;;;;1.55;0.80;;;;;;;;;;5004163;28;20583;-79
2023/10/31 07:38:35;;;;;;;0.47;0.47;;;;;;;;;;4982894;28;20354;-80
2023/10/31 07:41:01;;;;;;;0.60;0.60;;;;;;;;;;5001102;28;20061;-79
2023/10/31 07:43:26;;;;;;;1.02;0.90;;;;;;;;;;4986736;28;20046;-79
2023/10/31 07:45:51;;;;;;;1.05;0.80;;;;;;;;;;5004031;28;20430;-80
2023/10/31 07:48:16;;;;;;;1.95;0.68;;;;;;;;;;5003742;28;20033;-79
2023/10/31 07:50:42;;;;;;;2.03;0.70;;;;;;;;;;5003293;28;20163;-79
2023/10/31 07:53:07;;;;;;;1.17;0.50;;;;;;;;;;5002886;28;20058;-81
2023/10/31 07:55:32;;;;;;;1.52;1.23;;;;;;;;;;5002841;28;20104;-81
2023/10/31 07:57:57;;;;;;;1.13;0.60;;;;;;;;;;5003230;28;20037;-81
2023/10/31 08:00:23;;;;;;;0.82;0.60;;;;;;;;;;4993579;28;20160;-80
2023/10/31 08:02:48;;;;;;;1.15;1.10;;;;;;;;;;4985058;28;20033;-81
2023/10/31 08:05:14;;;;;;;1.83;1.08;;;;;;;;;;4984053;28;20069;-80
2023/10/31 08:07:39;;;;;;;1.40;0.90;;;;;;;;;;4953463;28;20647;-79
2023/10/31 08:10:05;;;;;;;2.65;0.85;;;;;;;;;;4996247;28;20171;-79
2023/10/31 08:12:30;;;;;;;0.73;0.73;;;;;;;;;;4987318;28;20042;-79
2023/10/31 08:14:55;;;;;;;3.40;1.30;;;;;;;;;;4989636;28;20056;-79
2023/10/31 08:17:21;;;;;;;2.80;0.80;;;;;;;;;;4987958;28;20070;-79
2023/10/31 08:19:47;;;;;;;1.65;0.70;;;;;;;;;;4972516;28;20232;-77
2023/10/31 08:22:13;;;;;;;1.38;0.90;;;;;;;;;;5004967;28;20042;-81
2023/10/31 08:24:38;;;;;;;4.00;1.10;;;;;;;;;;4982789;28;20057;-79
2023/10/31 08:27:04;;;;;;;0.93;0.70;;;;;;;;;;4998624;28;20481;-78
2023/10/31 08:29:29;;;;;;;3.30;0.60;;;;;;;;;;5005647;28;20026;-78
2023/10/31 08:31:55;;;;;;;5.47;0.90;;;;;;;;;;5001042;28;20038;-80
2023/10/31 08:34:20;;;;;;;0.57;0.57;;;;;;;;;;4997152;28;20037;-80
2023/10/31 08:36:45;;;;;;;1.35;0.70;;;;;;;;;;4997211;28;20038;-81
2023/10/31 08:39:11;;;;;;;0.85;0.70;;;;;;;;;;4997778;28;20033;-78
2023/10/31 08:41:38;;;;;;;2.03;0.82;;;;;;;;;;4985936;28;20077;-81
2023/10/31 08:44:04;;;;;;;2.28;0.70;;;;;;;;;;4992471;28;20137;-79
2023/10/31 08:46:29;;;;;;;2.60;1.25;;;;;;;;;;4964942;28;20137;-81
2023/10/31 08:48:54;;;;;;;0.60;0.60;;;;;;;;;;4968172;28;20058;-80
2023/10/31 08:51:20;;;;;;;2.03;0.68;;;;;;;;;;5002051;28;20406;-80
2023/10/31 08:53:45;;;;;;;1.35;0.98;;;;;;;;;;5004434;28;20113;-79
2023/10/31 08:56:10;;;;;;;0.73;0.70;;;;;;;;;;5001813;28;20029;-79
2023/10/31 08:58:35;;;;;;;2.75;1.05;;;;;;;;;;4997271;28;20038;-80
2023/10/31 09:01:01;;;;;;;0.70;0.60;;;;;;;;;;4999905;28;20049;-79
2023/10/31 09:03:26;;;;;;;1.45;0.70;;;;;;;;;;4959110;28;20265;-79
2023/10/31 09:05:51;;;;;;;2.05;0.80;;;;;;;;;;4935217;28;20022;-80
2023/10/31 09:08:17;;;;;;;1.88;1.02;;;;;;;;;;4991005;28;20046;-79
2023/10/31 09:10:45;;;;;;;0.70;0.70;;;;;;;;;;5000395;28;20042;-80
2023/10/31 09:13:11;;;;;;;0.93;0.88;;;;;;;;;;5002017;28;20041;-79
2023/10/31 09:15:36;;;;;;;3.60;0.68;;;;;;;;;;5001093;28;20183;-79
2023/10/31 09:18:02;;;;;;;1.90;0.90;;;;;;;;;;4998953;28;20038;-79
2023/10/31 09:20:29;;;;;;;1.30;0.75;;;;;;;;;;4991744;28;20059;-80
2023/10/31 09:22:54;;;;;;;3.75;0.88;;;;;;;;;;4983684;28;20034;-79
2023/10/31 09:25:19;;;;;;;2.78;0.80;;;;;;;;;;4988232;28;20038;-78
2023/10/31 09:27:50;;;;;;;2.70;0.73;;;;;;;;;;4987388;28;20042;-79
2023/10/31 09:30:16;;;;;;;1.48;0.85;;;;;;;;;;4974892;28;20048;-79
2023/10/31 09:32:41;;;;;;;3.08;0.73;;;;;;;;;;5002686;28;20066;-80
2023/10/31 09:35:08;;;;;;;2.70;1.00;;;;;;;;;;4977900;28;20039;-81
2023/10/31 09:37:33;;;;;;;1.40;0.73;;;;;;;;;;4987857;28;20046;-81
2023/10/31 09:39:58;;;;;;;0.95;0.70;;;;;;;;;;4975614;28;20041;-81
2023/10/31 09:42:24;;;;;;;0.88;0.80;;;;;;;;;;5000949;28;20049;-81
2023/10/31 09:44:49;;;;;;;1.15;0.80;;;;;;;;;;5004048;28;20022;-81
2023/10/31 09:47:15;;;;;;;2.00;0.93;;;;;;;;;;4979819;28;20045;-81
2023/10/31 09:49:40;;;;;;;0.50;0.50;;;;;;;;;;4999753;28;20038;-82
2023/10/31 09:52:07;;;;;;;1.30;0.50;;;;;;;;;;5008672;28;20034;-79
2023/10/31 09:54:33;;;;;;;2.92;1.50;;;;;;;;;;5002899;28;20120;-80
2023/10/31 09:56:59;;;;;;;1.75;0.70;;;;;;;;;;5002502;28;20030;-80
2023/10/31 09:59:24;;;;;;;2.58;0.93;;;;;;;;;;4997215;28;20424;-81
2023/10/31 10:01:49;;;;;;;2.97;0.77;;;;;;;;;;4969016;28;20046;-80
2023/10/31 10:04:17;;;;;;;1.75;0.85;;;;;;;;;;4984444;28;20051;-82
2023/10/31 10:06:59;;;;;;;1.08;0.52;;;;;;;;;;4985453;28;20039;-81
2023/10/31 10:09:25;;;;;;;1.92;0.77;;;;;;;;;;4986755;28;20040;-81
2023/10/31 10:11:52;;;;;;;4.30;1.15;;;;;;;;;;4981035;28;20030;-81
2023/10/31 10:14:17;;;;;;;3.13;0.85;;;;;;;;;;4996286;28;20061;-81
2023/10/31 10:16:42;;;;;;;3.05;0.73;;;;;;;;;;5001111;28;20036;-79
2023/10/31 10:19:19;;;;;;;5.68;1.02;;;;;;;;;;5000907;28;20073;-80
2023/10/31 10:21:50;;;;;;;3.42;0.80;;;;;;;;;;5000635;28;20038;-79
2023/10/31 10:24:16;;;;;;;3.45;0.65;;;;;;;;;;5000460;28;20486;-79
2023/10/31 10:26:42;;;;;;;4.18;0.80;;;;;;;;;;5000076;28;20025;-78
2023/10/31 10:29:07;;;;;;;1.05;0.80;;;;;;;;;;4995653;28;20042;-79
2023/10/31 10:31:32;;;;;;;1.65;0.75;;;;;;;;;;5002430;28;20052;-79
2023/10/31 10:33:58;;;;;;;0.50;0.50;;;;;;;;;;4986914;28;20045;-79
2023/10/31 10:36:25;;;;;;;5.35;0.70;;;;;;;;;;5002805;28;20121;-79
2023/10/31 10:38:56;;;;;;;2.17;0.75;;;;;;;;;;5002911;28;20040;-78
2023/10/31 10:41:24;;;;;;;0.63;0.57;;;;;;;;;;4993152;28;21834;-80
2023/10/31 10:43:56;;;;;;;1.42;0.57;;;;;;;;;;4991043;28;20581;-81
2023/10/31 10:46:25;;;;;;;3.60;0.50;;;;;;;;;;4973166;28;20045;-80
2023/10/31 10:48:57;;;;;;;1.08;0.50;;;;;;;;;;4989832;28;20065;-80
2023/10/31 10:55:24;;;;;;;2.45;1.00;;;;;;;;;;4991921;28;20244;-79
2023/10/31 10:58:00;;;;;;;0.50;0.43;;;;;;;;;;4971189;28;20084;-78
2023/10/31 11:00:26;;;;;;;1.65;0.52;;;;;;;;;;4996851;28;20045;-78
2023/10/31 11:02:53;;;;;;;0.40;0.40;;;;;;;;;;4984369;28;20077;-79
2023/10/31 11:05:19;;;;;;;2.97;0.93;;;;;;;;;;4986978;28;20510;-79
2023/10/31 11:07:46;;;;;;;0.50;0.50;;;;;;;;;;4987199;28;20042;-80
2023/10/31 11:10:52;;;;;;;0.60;0.60;;;;;;;;;;5006288;28;20049;-80
2023/10/31 11:13:17;;;;;;;1.15;0.30;;;;;;;;;;5009026;28;20370;-79
2023/10/31 11:15:43;;;;;;;1.75;0.75;;;;;;;;;;5017798;28;20149;-78
2023/10/31 11:18:09;;;;;;;0.50;0.50;;;;;;;;;;5004088;28;20347;-79
2023/10/31 11:20:36;;;;;;;1.55;0.60;;;;;;;;;;5019282;28;20048;-79
2023/10/31 11:23:06;;;;;;;1.77;0.63;;;;;;;;;;5001768;28;20046;-80
2023/10/31 11:25:32;;;;;;;3.75;0.60;;;;;;;;;;5009754;28;20386;-79
2023/10/31 11:28:11;;;;;;;0.60;0.55;;;;;;;;;;5011389;28;20045;-78
2023/10/31 11:30:36;;;;;;;1.85;0.57;;;;;;;;;;5007382;28;20042;-79
2023/10/31 11:36:24;;;;;;;0.60;0.60;;;;;;;;;;4984996;28;20048;-80
2023/10/31 11:38:49;;;;;;;0.57;0.50;;;;;;;;;;5003337;28;20074;-80
2023/10/31 11:41:14;;;;;;;0.70;0.70;;;;;;;;;;4980895;28;20043;-79
2023/10/31 11:43:40;;;;;;;0.52;0.50;;;;;;;;;;4999454;28;20045;-81
2023/10/31 11:46:06;;;;;;;0.60;0.60;;;;;;;;;;5014770;28;20112;-80
2023/10/31 11:48:51;;;;;;;0.55;0.55;;;;;;;;;;5015129;28;20030;-80
2023/10/31 11:51:17;;;;;;;;;;;;;;;;;;5016365;28;20030;-78
2023/10/31 11:53:43;;;;;;;0.40;0.40;;;;;;;;;;5016032;28;19988;-81
2023/10/31 11:56:10;;;;;;;0.73;0.65;;;;;;;;;;5016952;28;20057;-80
2023/10/31 11:58:36;;;;;;;0.65;0.60;;;;;;;;;;5005879;28;20049;-82
2023/10/31 12:01:06;;;;;;;1.15;0.70;;;;;;;;;;5010958;28;20687;-78
2023/10/31 12:03:42;;;;;;;5.38;0.80;;;;;;;;;;5012532;28;20029;-78
2023/10/31 12:06:11;;;;;;;2.38;1.45;;;;;;;;;;5012426;28;20018;-81
2023/10/31 12:08:43;;;;;;;0.60;0.60;;;;;;;;;;5014168;28;20543;-81
2023/10/31 12:11:16;;;;;;;0.88;0.80;;;;;;;;;;5016330;28;20076;-79
2023/10/31 12:13:51;;;;;;;0.60;0.60;;;;;;;;;;5014901;28;20302;-79
2023/10/31 12:16:17;;;;;;;0.70;0.70;;;;;;;;;;5015981;28;20031;-78
2023/10/31 12:18:43;;;;;;;1.20;0.80;;;;;;;;;;4996127;28;20034;-81
2023/10/31 12:21:10;;;;;;;1.30;0.82;;;;;;;;;;5009436;28;20026;-80
2023/10/31 12:23:36;;;;;;;0.68;0.68;;;;;;;;;;4998209;28;20282;-81
2023/10/31 12:26:02;;;;;;;1.02;0.73;;;;;;;;;;5016157;28;20042;-80
2023/10/31 12:28:28;;;;;;;2.47;0.70;;;;;;;;;;5013277;28;20042;-80
2023/10/31 12:30:56;;;;;;;1.15;0.60;;;;;;;;;;5011083;28;20041;-80
2023/10/31 12:33:24;;;;;;;1.55;0.50;;;;;;;;;;5010890;28;20342;-81
2023/10/31 12:35:51;;;;;;;1.45;0.60;;;;;;;;;;5011846;28;20072;-81
2023/10/31 12:38:17;;;;;;;2.75;0.82;;;;;;;;;;5012216;28;20049;-81
2023/10/31 12:40:44;;;;;;;0.50;0.50;;;;;;;;;;5014016;28;20505;-80
2023/10/31 12:43:09;;;;;;;0.88;0.65;;;;;;;;;;5015978;28;20074;-79
2023/10/31 12:45:35;;;;;;;4.22;0.70;;;;;;;;;;5015795;28;20105;-81
2023/10/31 12:48:04;;;;;;;0.63;0.63;;;;;;;;;;4996282;28;20025;-80
2023/10/31 12:50:31;;;;;;;0.50;0.50;;;;;;;;;;5013551;28;20097;-80
2023/10/31 12:52:57;;;;;;;0.68;0.50;;;;;;;;;;5013081;28;20072;-79
2023/10/31 12:55:24;;;;;;;5.80;0.80;;;;;;;;;;5012977;28;20090;-79
2023/10/31 12:57:51;;;;;;;1.30;0.98;;;;;;;;;;4998613;28;20057;-79
2023/10/31 13:00:28;;;;;;;0.90;0.70;;;;;;;;;;4988647;28;20494;-80
2023/10/31 13:03:08;;;;;;;1.17;0.50;;;;;;;;;;5016112;28;20022;-79
2023/10/31 13:05:35;;;;;;;1.17;0.77;;;;;;;;;;5014411;28;20034;-79
2023/10/31 13:08:04;;;;;;;0.93;0.70;;;;;;;;;;5017133;28;20048;-79
2023/10/31 13:10:33;;;;;;;0.80;0.80;;;;;;;;;;5000476;28;20037;-78
2023/10/31 13:12:59;;;;;;;0.60;0.60;;;;;;;;;;5013189;28;20038;-79
2023/10/31 13:15:24;;;;;;;0.55;0.55;;;;;;;;;;5008701;28;20043;-77
2023/10/31 13:17:51;;;;;;;0.52;0.52;;;;;;;;;;5011883;28;20022;-80
2023/10/31 13:20:21;;;;;;;0.65;0.60;;;;;;;;;;5013415;28;20049;-80
2023/10/31 13:22:47;;;;;;;0.77;0.75;;;;;;;;;;5016744;28;20045;-80
2023/10/31 13:25:13;;;;;;;1.80;0.90;;;;;;;;;;4993470;28;20041;-81
2023/10/31 13:27:41;;;;;;;1.05;0.70;;;;;;;;;;5012914;28;20525;-80
2023/10/31 13:30:07;;;;;;;0.57;0.55;;;;;;;;;;5010311;28;20341;-79
2023/10/31 13:32:33;;;;;;;0.60;0.60;;;;;;;;;;5015691;28;20033;-79
2023/10/31 13:34:59;;;;;;;0.75;0.73;;;;;;;;;;5010639;28;20077;-79
2023/10/31 13:37:25;;;;;;;0.82;0.77;;;;;;;;;;5013757;28;20042;-80
2023/10/31 13:39:50;;;;;;;0.60;0.60;;;;;;;;;;5009665;28;20042;-80
2023/10/31 13:42:16;;;;;;;0.70;0.70;;;;;;;;;;5010392;28;20025;-79
2023/10/31 13:44:41;;;;;;;0.77;0.68;;;;;;;;;;4991335;28;20456;-79
2023/10/31 13:47:07;;;;;;;1.05;1.00;;;;;;;;;;5009328;28;20037;-79
2023/10/31 13:49:32;;;;;;;1.40;0.80;;;;;;;;;;5012344;28;20025;-80
2023/10/31 13:51:58;;;;;;;0.90;0.82;;;;;;;;;;5009198;28;20037;-80
2023/10/31 13:54:23;;;;;;;1.25;1.00;;;;;;;;;;5009751;28;20034;-79
2023/10/31 13:56:48;;;;;;;1.48;0.85;;;;;;;;;;5019464;28;20045;-78
2023/10/31 13:59:14;;;;;;;1.45;1.13;;;;;;;;;;5013832;28;20042;-80
2023/10/31 14:01:40;;;;;;;3.47;0.90;;;;;;;;;;5016731;28;20030;-79
2023/10/31 14:04:07;;;;;;;2.45;0.77;;;;;;;;;;5003156;28;20046;-81
2023/10/31 14:06:33;;;;;;;1.45;0.77;;;;;;;;;;5011558;28;20547;-77
2023/10/31 14:08:59;;;;;;;4.05;0.90;;;;;;;;;;5012291;28;20089;-80
2023/10/31 14:11:24;;;;;;;0.85;0.60;;;;;;;;;;5017332;28;20037;-80
2023/10/31 14:13:50;;;;;;;2.10;0.80;;;;;;;;;;5010646;28;20098;-81
2023/10/31 14:16:16;;;;;;;1.75;0.60;;;;;;;;;;5016861;28;20043;-78
2023/10/31 14:18:42;;;;;;;2.35;0.80;;;;;;;;;;5017999;28;20484;-80
2023/10/31 14:21:08;;;;;;;1.02;1.02;;;;;;;;;;5010837;28;20041;-80
2023/10/31 14:23:33;;;;;;;0.60;0.60;;;;;;;;;;5010103;28;20029;-79
2023/10/31 14:25:59;;;;;;;1.10;1.00;;;;;;;;;;5008217;28;20042;-80
2023/10/31 14:28:24;;;;;;;0.70;0.70;;;;;;;;;;5003310;28;20046;-80
2023/10/31 14:30:52;;;;;;;1.50;0.80;;;;;;;;;;5010599;28;20042;-78
2023/10/31 14:33:17;;;;;;;2.40;1.20;;;;;;;;;;5008850;28;20022;-78
2023/10/31 14:35:43;;;;;;;1.70;1.00;;;;;;;;;;5011080;28;20505;-79
2023/10/31 14:38:08;;;;;;;3.42;1.50;;;;;;;;;;5006370;28;20034;-79
2023/10/31 14:40:33;;;;;;;0.77;0.77;;;;;;;;;;5004462;28;20045;-78
2023/10/31 14:42:58;;;;;;;1.52;1.00;;;;;;;;;;5000634;28;20604;-79
2023/10/31 14:45:24;;;;;;;0.68;0.68;;;;;;;;;;5008336;28;20117;-80
2023/10/31 14:47:49;;;;;;;1.23;0.65;;;;;;;;;;5004793;28;20052;-79